Upstream stations:
Downstream station:
SHEF ID: CDNT2 Canadian Rv nr Canadian, TX
STATION TYPE:
Regulating: Stage = 8.00, Flow = 5231
STAGE RIV-FLOW BAT-LOAD
ft cfs volt
Ccp-Rev Ccp-Rev Ccp-Rev
(US/Central)
05/18 00:00 1.13 31 12.41
05/18 01:00 1.13 31 12.41
05/18 02:00 1.14 32 12.41
05/18 03:00 1.16 34 12.33
05/18 04:00 1.16 34 12.33
05/18 05:00 1.15 33 12.33
05/18 06:00 1.14 32 12.33
05/18 07:00 1.16 34 12.25
05/18 08:00 1.15 33 12.25
05/18 09:00 1.15 33 12.33
05/18 10:00 1.15 33 12.41
05/18 11:00 1.15 33 12.73
05/18 12:00 1.17 36 12.97
05/18 13:00 1.16 34 13.05
05/18 14:00 1.13 31 13.13
05/18 15:00 1.13 31 13.13
05/18 16:00 1.14 32 13.13
05/18 17:00 1.14 32 12.97
05/18 18:00 1.15 33 12.65
05/18 19:00 1.13 31 12.57
05/18 20:00 1.13 31 12.49
05/18 21:00 1.13 31 12.41
05/18 22:00 1.12 30 12.41
05/18 23:00 ---- ---- ----